createdAt,value
2018-11-21T00:01:31.395Z,25.37
2018-11-21T00:04:11.775Z,26.20
2018-11-21T00:06:51.420Z,28.27
2018-11-21T00:09:31.401Z,26.80
2018-11-21T00:12:11.246Z,27.90
2018-11-21T00:14:51.328Z,25.10
2018-11-21T00:17:31.624Z,25.23
2018-11-21T00:20:12.333Z,24.13
2018-11-21T00:22:53.125Z,24.43
2018-11-21T00:25:33.250Z,24.80
2018-11-21T00:28:13.194Z,25.57
2018-11-21T00:30:52.918Z,23.23
2018-11-21T00:33:32.922Z,24.00
2018-11-21T00:36:12.501Z,23.67
2018-11-21T00:38:52.160Z,24.13
2018-11-21T00:41:31.857Z,23.30
2018-11-21T00:44:12.098Z,25.00
2018-11-21T00:46:52.327Z,26.60
2018-11-21T00:49:31.840Z,23.07
2018-11-21T00:52:11.948Z,22.97
2018-11-21T00:54:51.971Z,24.00
2018-11-21T00:57:31.803Z,23.87
2018-11-21T01:00:12.352Z,22.97
2018-11-21T01:02:52.321Z,25.40
2018-11-21T01:05:31.749Z,24.70
2018-11-21T01:08:11.798Z,24.47
2018-11-21T01:10:51.779Z,24.30
2018-11-21T01:13:31.477Z,23.67
2018-11-21T01:16:11.508Z,23.67
2018-11-21T01:18:51.270Z,23.10
2018-11-21T01:21:31.036Z,24.20
2018-11-21T01:24:10.944Z,22.93
2018-11-21T01:26:51.274Z,24.57
2018-11-21T01:29:30.958Z,23.70
2018-11-21T01:32:10.827Z,26.17
2018-11-21T01:34:51.288Z,24.50
2018-11-21T01:37:31.361Z,23.47
2018-11-21T01:40:11.271Z,25.17
2018-11-21T01:42:51.456Z,25.13
2018-11-21T01:45:31.333Z,24.23
2018-11-21T01:48:11.650Z,23.67
2018-11-21T01:50:51.114Z,23.47
2018-11-21T01:53:30.810Z,24.20
2018-11-21T01:56:10.344Z,25.20
2018-11-21T01:58:50.410Z,24.77
2018-11-21T02:01:30.424Z,26.20
2018-11-21T02:04:10.523Z,24.53
2018-11-21T02:06:50.119Z,25.23
2018-11-21T02:09:30.182Z,23.80
2018-11-21T02:12:10.162Z,24.90
2018-11-21T02:14:49.731Z,22.97
2018-11-21T02:17:29.571Z,28.43
2018-11-21T02:20:07.714Z,25.53
2018-11-21T02:22:54.316Z,24.87
2018-11-21T02:25:41.445Z,25.90
2018-11-21T02:28:28.292Z,25.87
2018-11-21T02:31:15.382Z,23.63
2018-11-21T02:34:02.269Z,25.87
2018-11-21T02:36:49.009Z,23.43
2018-11-21T02:39:35.553Z,25.93
2018-11-21T02:42:22.337Z,24.87
2018-11-21T02:45:09.418Z,24.67
2018-11-21T02:47:56.015Z,25.40
2018-11-21T02:50:42.627Z,26.10
2018-11-21T02:53:29.741Z,24.87
2018-11-21T02:56:16.415Z,25.13
2018-11-21T02:59:03.042Z,26.47
2018-11-21T03:01:50.412Z,26.20
2018-11-21T03:04:37.257Z,25.00
2018-11-21T03:07:23.847Z,27.47
2018-11-21T03:10:10.472Z,26.20
2018-11-21T03:12:57.147Z,25.00
2018-11-21T03:15:44.071Z,28.63
2018-11-21T03:18:30.664Z,25.80
2018-11-21T03:21:17.615Z,24.77
2018-11-21T03:24:04.524Z,25.80
2018-11-21T03:26:51.700Z,26.70
2018-11-21T03:29:38.585Z,26.03
2018-11-21T03:32:25.374Z,27.17
2018-11-21T03:35:12.049Z,27.73
2018-11-21T03:37:58.723Z,27.00
2018-11-21T03:40:45.310Z,25.73
2018-11-21T03:43:31.990Z,25.87
2018-11-21T03:46:18.573Z,26.80
2018-11-21T03:49:05.301Z,25.40
2018-11-21T03:51:51.896Z,26.63
2018-11-21T03:54:38.555Z,27.27
2018-11-21T03:57:25.879Z,24.67
2018-11-21T04:00:13.222Z,25.90
2018-11-21T04:02:59.828Z,26.30
2018-11-21T04:05:46.749Z,28.70
2018-11-21T04:08:33.351Z,27.00
2018-11-21T04:11:20.067Z,25.57
2018-11-21T04:14:06.995Z,27.23
2018-11-21T04:16:53.940Z,27.07
2018-11-21T04:19:40.536Z,27.30
2018-11-21T04:22:27.406Z,26.43
2018-11-21T04:25:14.007Z,26.20
2018-11-21T04:28:01.014Z,28.00
2018-11-21T04:30:47.840Z,27.87
2018-11-21T04:33:34.479Z,29.07
2018-11-21T04:36:21.649Z,29.37
2018-11-21T04:39:08.727Z,28.23
2018-11-21T04:41:55.581Z,29.57
2018-11-21T04:44:42.456Z,29.03
2018-11-21T04:47:21.981Z,27.00
2018-11-21T04:50:02.019Z,27.23
2018-11-21T04:52:41.661Z,28.20
2018-11-21T04:55:21.638Z,26.30
2018-11-21T04:58:01.335Z,28.30
2018-11-21T05:00:40.912Z,26.53
2018-11-21T05:03:20.963Z,29.00
2018-11-21T05:06:01.316Z,29.57
2018-11-21T05:08:40.987Z,27.90
2018-11-21T05:11:20.657Z,27.13
2018-11-21T05:14:00.158Z,29.23
2018-11-21T05:16:39.872Z,28.57
2018-11-21T05:19:19.591Z,33.10
2018-11-21T05:21:59.566Z,32.47
2018-11-21T05:24:39.014Z,34.97
2018-11-21T05:27:18.643Z,32.30
2018-11-21T05:29:58.436Z,32.67
2018-11-21T05:32:38.721Z,32.27
2018-11-21T05:35:18.631Z,29.90
2018-11-21T05:37:58.191Z,28.43
2018-11-21T05:40:38.173Z,27.87
2018-11-21T05:43:18.705Z,28.53
2018-11-21T05:45:59.255Z,30.43
2018-11-21T05:48:39.841Z,29.10
2018-11-21T05:51:20.190Z,28.50
2018-11-21T05:53:59.659Z,30.47
2018-11-21T05:56:39.734Z,30.43
2018-11-21T05:59:19.404Z,28.57
2018-11-21T06:01:59.068Z,29.07
2018-11-21T06:04:38.573Z,29.30
2018-11-21T06:07:18.357Z,27.87
2018-11-21T06:09:58.085Z,27.90
2018-11-21T06:12:38.499Z,29.10
2018-11-21T06:15:18.621Z,29.43
2018-11-21T06:17:58.726Z,28.47
2018-11-21T06:20:38.195Z,27.80
2018-11-21T06:23:18.011Z,28.17
2018-11-21T06:25:57.753Z,27.90
2018-11-21T06:28:38.371Z,28.83
2018-11-21T06:31:17.977Z,30.17
2018-11-21T06:33:57.868Z,31.80
2018-11-21T06:36:37.228Z,28.40
2018-11-21T06:39:18.176Z,30.13
2018-11-21T06:41:57.899Z,30.77
2018-11-21T06:44:37.559Z,29.67
2018-11-21T06:47:17.276Z,29.60
2018-11-21T06:49:57.657Z,28.90
2018-11-21T06:52:38.299Z,29.37
2018-11-21T06:55:18.002Z,29.30
2018-11-21T06:57:57.634Z,29.80
2018-11-21T07:00:37.757Z,28.63
2018-11-21T07:03:17.282Z,28.37
2018-11-21T07:05:57.307Z,29.10
2018-11-21T07:08:37.260Z,30.80
2018-11-21T07:11:17.167Z,30.07
2018-11-21T07:13:56.640Z,31.53
2018-11-21T07:16:37.330Z,31.03
2018-11-21T07:19:17.233Z,29.60
2018-11-21T07:21:56.853Z,30.20
2018-11-21T07:24:36.582Z,30.40
2018-11-21T07:27:16.426Z,30.47
2018-11-21T07:29:56.438Z,29.93
2018-11-21T07:32:38.610Z,29.20
2018-11-21T07:35:18.821Z,28.37
2018-11-21T07:37:59.059Z,30.67
2018-11-21T07:40:38.619Z,28.30
2018-11-21T07:43:18.792Z,30.27
2018-11-21T07:45:58.287Z,27.20
2018-11-21T07:48:38.168Z,28.93
2018-11-21T07:51:18.260Z,30.80
2018-11-21T07:53:58.513Z,29.60
2018-11-21T07:56:38.147Z,27.27
2018-11-21T07:59:17.658Z,27.73
2018-11-21T08:02:01.019Z,30.10
2018-11-21T08:05:07.240Z,28.27
2018-11-21T08:08:13.439Z,28.10
2018-11-21T08:11:20.165Z,27.90
2018-11-21T08:14:26.420Z,27.83
2018-11-21T08:17:32.634Z,27.83
2018-11-21T08:20:38.837Z,28.00
2018-11-21T08:23:45.439Z,28.50
2018-11-21T08:26:51.640Z,26.57
2018-11-21T08:29:38.541Z,28.60
2018-11-21T08:32:25.410Z,30.23
2018-11-21T08:35:12.065Z,28.97
2018-11-21T08:37:58.916Z,28.30
2018-11-21T08:40:45.637Z,26.33
2018-11-21T08:43:32.282Z,27.83
2018-11-21T08:46:19.006Z,27.97
2018-11-21T08:49:05.648Z,28.57
2018-11-21T08:51:52.571Z,27.70
2018-11-21T08:54:39.155Z,27.57
2018-11-21T08:57:25.793Z,29.03
2018-11-21T09:00:13.170Z,29.17
2018-11-21T09:02:59.891Z,29.27
2018-11-21T09:05:27.037Z,29.07
2018-11-21T09:08:14.433Z,28.77
2018-11-21T09:11:01.024Z,28.03
2018-11-21T09:13:47.761Z,25.50
2018-11-21T09:16:34.335Z,28.00
2018-11-21T09:19:20.955Z,30.07
2018-11-21T09:22:07.997Z,27.27
2018-11-21T09:24:54.786Z,27.87
2018-11-21T09:27:42.128Z,28.50
2018-11-21T09:30:28.765Z,28.40
2018-11-21T09:33:15.696Z,29.93
2018-11-21T09:36:02.541Z,28.23
2018-11-21T09:38:49.223Z,29.43
2018-11-21T09:41:36.068Z,27.87
2018-11-21T09:44:23.063Z,27.27
2018-11-21T09:47:09.699Z,27.70
2018-11-21T09:49:56.731Z,28.87
2018-11-21T09:52:43.416Z,28.63
2018-11-21T09:55:23.173Z,27.87
2018-11-21T09:58:03.330Z,30.07
2018-11-21T10:00:44.573Z,29.63
2018-11-21T10:03:34.751Z,29.97
2018-11-21T10:06:14.811Z,29.23
2018-11-21T10:08:57.127Z,28.70
2018-11-21T10:11:36.964Z,30.07
2018-11-21T10:14:16.828Z,30.43
2018-11-21T10:16:56.678Z,28.50
2018-11-21T10:19:36.360Z,29.37
2018-11-21T10:22:16.044Z,29.73
2018-11-21T10:24:55.777Z,29.07
2018-11-21T10:27:35.539Z,30.80
2018-11-21T10:30:15.057Z,31.10
2018-11-21T10:32:54.871Z,30.40
2018-11-21T10:35:36.032Z,30.57
2018-11-21T10:38:13.840Z,27.37
2018-11-21T10:40:53.780Z,29.07
2018-11-21T10:43:34.306Z,28.23
2018-11-21T10:46:13.832Z,29.40
2018-11-21T10:48:53.227Z,28.40
2018-11-21T10:51:33.111Z,29.27
2018-11-21T10:54:12.888Z,30.83
2018-11-21T10:56:53.489Z,30.40
2018-11-21T10:59:33.719Z,31.43
2018-11-21T11:02:33.299Z,30.40
2018-11-21T11:05:33.090Z,30.20
2018-11-21T11:08:33.051Z,29.40
2018-11-21T11:11:32.942Z,28.50
2018-11-21T11:14:32.640Z,29.47
2018-11-21T11:17:31.654Z,27.80
2018-11-21T11:20:31.179Z,29.30
2018-11-21T11:23:30.862Z,30.13
2018-11-21T11:26:30.661Z,28.90
2018-11-21T11:29:30.368Z,28.77
2018-11-21T11:32:30.215Z,31.87
2018-11-21T11:35:29.892Z,31.30
2018-11-21T11:38:29.635Z,30.80
2018-11-21T11:41:35.609Z,30.13
2018-11-21T11:44:35.135Z,28.70
2018-11-21T11:47:34.810Z,31.63
2018-11-21T11:50:39.761Z,29.30
2018-11-21T11:53:38.739Z,31.50
2018-11-21T11:56:38.502Z,31.83
2018-11-21T11:59:38.147Z,31.30
2018-11-21T12:02:37.951Z,31.53
2018-11-21T12:05:30.993Z,31.07
2018-11-21T12:08:24.454Z,31.10
2018-11-21T12:11:23.725Z,31.60
2018-11-21T12:14:29.724Z,30.30
2018-11-21T12:17:29.394Z,32.43
2018-11-21T12:20:28.771Z,31.13
2018-11-21T12:23:28.427Z,30.87
2018-11-21T12:26:34.357Z,30.07
2018-11-21T12:29:33.881Z,30.70
2018-11-21T12:32:39.285Z,30.10
2018-11-21T12:35:26.506Z,32.03
2018-11-21T12:38:28.787Z,30.53
2018-11-21T12:41:28.627Z,30.90
2018-11-21T12:44:28.451Z,31.63
2018-11-21T12:47:28.208Z,30.83
2018-11-21T12:50:28.036Z,33.03
2018-11-21T12:53:27.764Z,33.00
2018-11-21T12:56:27.511Z,33.50
2018-11-21T12:59:18.479Z,31.60
2018-11-21T13:02:17.603Z,30.67
2018-11-21T13:05:17.362Z,30.70
2018-11-21T13:08:17.289Z,28.90
2018-11-21T13:11:17.123Z,29.03
2018-11-21T13:14:16.798Z,28.87
2018-11-21T13:17:22.617Z,31.13
2018-11-21T13:20:22.451Z,28.80
2018-11-21T13:23:25.094Z,28.57
2018-11-21T13:26:27.711Z,31.17
2018-11-21T13:29:27.313Z,30.77
2018-11-21T13:32:19.015Z,29.20
2018-11-21T13:35:18.502Z,28.70
2018-11-21T13:38:23.253Z,29.97
2018-11-21T13:41:18.172Z,30.83
2018-11-21T13:44:18.011Z,30.30
2018-11-21T13:47:12.033Z,30.13
2018-11-21T13:50:11.004Z,28.30
2018-11-21T13:53:09.965Z,30.70
2018-11-21T13:55:50.196Z,28.90
2018-11-21T13:58:29.859Z,29.77
2018-11-21T14:01:10.030Z,31.20
2018-11-21T14:03:49.460Z,29.80
2018-11-21T14:06:29.329Z,31.47
2018-11-21T14:09:09.171Z,33.07
2018-11-21T14:11:49.972Z,30.37
2018-11-21T14:14:30.201Z,33.17
2018-11-21T14:17:10.456Z,31.57
2018-11-21T14:19:50.101Z,31.80
2018-11-21T14:22:29.983Z,33.10
2018-11-21T14:25:10.291Z,30.30
2018-11-21T14:27:50.506Z,32.17
2018-11-21T14:30:30.183Z,33.30
2018-11-21T14:33:10.083Z,31.00
2018-11-21T14:35:52.304Z,30.87
2018-11-21T14:38:30.142Z,31.30
2018-11-21T14:41:09.676Z,30.60
2018-11-21T14:43:49.275Z,32.27
2018-11-21T14:46:28.839Z,33.33
2018-11-21T14:49:08.610Z,31.57
2018-11-21T14:51:48.956Z,29.80
2018-11-21T14:54:29.037Z,29.77
2018-11-21T14:57:08.619Z,31.90
2018-11-21T14:59:48.352Z,30.83
2018-11-21T15:02:28.161Z,33.27
2018-11-21T15:05:08.024Z,31.50
2018-11-21T15:07:48.154Z,32.57
2018-11-21T15:10:27.961Z,31.67
2018-11-21T15:13:07.500Z,34.37
2018-11-21T15:15:47.253Z,32.07
2018-11-21T15:18:27.280Z,31.90
2018-11-21T15:21:07.245Z,31.23
2018-11-21T15:23:47.180Z,33.20
2018-11-21T15:26:26.735Z,30.13
2018-11-21T15:29:06.418Z,32.17
2018-11-21T15:31:46.429Z,32.17
2018-11-21T15:34:26.847Z,33.07
2018-11-21T15:37:06.736Z,34.47
2018-11-21T15:39:46.420Z,42.27
2018-11-21T15:42:26.183Z,40.33
2018-11-21T15:45:06.105Z,38.87
2018-11-21T15:47:45.883Z,38.00
2018-11-21T15:50:25.786Z,32.77
2018-11-21T15:53:05.425Z,29.60
2018-11-21T15:55:45.031Z,32.17
2018-11-21T15:58:25.091Z,30.07
2018-11-21T16:01:05.638Z,32.13
2018-11-21T16:03:45.167Z,32.80
2018-11-21T16:06:25.284Z,31.67
2018-11-21T16:09:05.891Z,30.77
2018-11-21T16:11:52.731Z,32.43
2018-11-21T16:14:40.248Z,28.93
2018-11-21T16:17:26.873Z,30.33
2018-11-21T16:20:14.644Z,30.80
2018-11-21T16:23:01.466Z,30.67
2018-11-21T16:25:48.771Z,33.80
2018-11-21T16:28:35.493Z,31.40
2018-11-21T16:31:22.391Z,31.67
2018-11-21T16:34:08.996Z,33.57
2018-11-21T16:36:55.838Z,31.47
2018-11-21T16:39:46.256Z,31.50
2018-11-21T16:42:33.450Z,31.67
2018-11-21T16:45:22.088Z,34.03
2018-11-21T16:48:02.152Z,32.90
2018-11-21T16:50:41.763Z,31.60
2018-11-21T16:53:22.344Z,31.07
2018-11-21T16:56:02.153Z,34.00
2018-11-21T16:58:42.247Z,33.13
2018-11-21T17:01:22.033Z,34.10
2018-11-21T17:04:01.893Z,33.50
2018-11-21T17:06:42.333Z,31.17
2018-11-21T17:09:22.820Z,31.13
2018-11-21T17:12:02.783Z,31.73
2018-11-21T17:14:42.625Z,32.40
2018-11-21T17:17:22.052Z,35.37
2018-11-21T17:20:02.407Z,31.30
2018-11-21T17:22:42.170Z,32.03
2018-11-21T17:25:23.577Z,33.30
2018-11-21T17:28:03.608Z,33.07
2018-11-21T17:30:43.235Z,32.07
2018-11-21T17:33:23.357Z,34.07
2018-11-21T17:36:02.956Z,32.07
2018-11-21T17:38:43.030Z,33.60
2018-11-21T17:41:24.033Z,34.03
2018-11-21T17:44:03.677Z,32.70
2018-11-21T17:46:43.309Z,33.90
2018-11-21T17:49:23.142Z,35.07
2018-11-21T17:52:02.661Z,33.03
2018-11-21T17:54:42.448Z,33.17
2018-11-21T17:57:27.891Z,36.10
2018-11-21T18:00:01.980Z,32.10
2018-11-21T18:02:41.611Z,35.63
2018-11-21T18:05:29.648Z,33.97
2018-11-21T18:08:09.686Z,33.90
2018-11-21T18:10:49.292Z,34.40
2018-11-21T18:13:29.011Z,32.20
2018-11-21T18:16:09.151Z,34.10
2018-11-21T18:18:49.473Z,31.80
2018-11-21T18:21:29.212Z,33.27
2018-11-21T18:24:09.573Z,34.17
2018-11-21T18:26:37.301Z,35.30
2018-11-21T18:29:24.161Z,37.40
2018-11-21T18:32:11.818Z,37.67
2018-11-21T18:34:40.599Z,35.37
2018-11-21T18:37:08.230Z,35.87
2018-11-21T18:39:55.501Z,36.53
2018-11-21T18:42:42.320Z,34.87
2018-11-21T18:45:40.556Z,36.73
2018-11-21T18:48:28.536Z,35.13
2018-11-21T18:50:57.529Z,37.23
2018-11-21T18:53:44.821Z,36.33
2018-11-21T18:56:35.962Z,36.77
2018-11-21T18:59:42.300Z,35.13
2018-11-21T19:02:28.918Z,37.27
2018-11-21T19:05:16.026Z,35.40
2018-11-21T19:08:02.715Z,36.43
2018-11-21T19:10:50.225Z,35.47
2018-11-21T19:13:38.441Z,35.00
2018-11-21T19:16:26.157Z,33.70
2018-11-21T19:19:13.313Z,35.87
2018-11-21T19:22:00.370Z,33.47
2018-11-21T19:24:47.141Z,33.03
2018-11-21T19:27:34.060Z,34.03
2018-11-21T19:30:21.811Z,35.30
2018-11-21T19:32:49.221Z,37.50
2018-11-21T19:35:35.858Z,35.90
2018-11-21T19:38:22.877Z,34.90
2018-11-21T19:41:09.767Z,35.13
2018-11-21T19:43:56.782Z,34.90
2018-11-21T19:46:43.392Z,35.00
2018-11-21T19:49:24.768Z,35.00
2018-11-21T19:52:05.073Z,36.47
2018-11-21T19:54:45.003Z,35.30
2018-11-21T19:57:25.357Z,34.90
2018-11-21T20:00:04.768Z,37.07
2018-11-21T20:02:45.447Z,37.83
2018-11-21T20:05:25.278Z,36.00
2018-11-21T20:08:05.410Z,34.10
2018-11-21T20:10:45.096Z,34.53
2018-11-21T20:13:24.592Z,34.60
2018-11-21T20:16:04.179Z,35.60
2018-11-21T20:18:43.896Z,34.37
2018-11-21T20:21:23.722Z,36.13
2018-11-21T20:24:03.826Z,32.90
2018-11-21T20:26:44.166Z,33.93
2018-11-21T20:29:23.908Z,34.83
2018-11-21T20:32:03.653Z,34.07
2018-11-21T20:34:43.303Z,37.30
2018-11-21T20:37:22.869Z,35.47
2018-11-21T20:40:02.828Z,37.70
2018-11-21T20:42:43.087Z,35.77
2018-11-21T20:45:24.807Z,35.37
2018-11-21T20:48:04.951Z,34.13
2018-11-21T20:50:44.717Z,37.27
2018-11-21T20:53:25.040Z,36.27
2018-11-21T20:56:04.882Z,38.20
2018-11-21T20:58:45.433Z,34.20
2018-11-21T21:01:26.376Z,35.57
2018-11-21T21:04:07.277Z,34.50
2018-11-21T21:06:47.401Z,34.97
2018-11-21T21:09:27.760Z,37.83
2018-11-21T21:12:07.715Z,37.60
2018-11-21T21:14:48.709Z,34.27
2018-11-21T21:17:28.683Z,36.40
2018-11-21T21:20:08.584Z,34.80
2018-11-21T21:22:50.193Z,35.70
2018-11-21T21:25:30.792Z,38.43
2018-11-21T21:28:11.093Z,34.80
2018-11-21T21:30:51.068Z,34.63
2018-11-21T21:33:31.743Z,37.07
2018-11-21T21:36:11.586Z,35.77
2018-11-21T21:38:51.069Z,33.00
2018-11-21T21:41:30.838Z,34.40
2018-11-21T21:44:10.348Z,33.80
2018-11-21T21:46:49.963Z,35.00
2018-11-21T21:49:33.024Z,34.97
2018-11-21T21:52:19.767Z,35.50
2018-11-21T21:55:07.022Z,34.53
2018-11-21T21:57:53.636Z,34.67
2018-11-21T22:00:40.476Z,37.87
2018-11-21T22:03:27.418Z,33.93
2018-11-21T22:06:13.917Z,35.20
2018-11-21T22:09:00.692Z,35.70
2018-11-21T22:11:48.912Z,34.67
2018-11-21T22:14:35.541Z,33.37
2018-11-21T22:17:22.131Z,34.83
2018-11-21T22:20:09.064Z,32.83
2018-11-21T22:22:55.507Z,35.10
2018-11-21T22:25:42.128Z,34.73
2018-11-21T22:28:28.818Z,35.73
2018-11-21T22:31:15.465Z,35.63
2018-11-21T22:33:43.237Z,35.77
2018-11-21T22:36:30.323Z,36.33
2018-11-21T22:39:17.578Z,35.50
2018-11-21T22:42:04.867Z,32.80
2018-11-21T22:44:51.188Z,34.80
2018-11-21T22:47:38.935Z,36.00
2018-11-21T22:50:22.993Z,33.90
2018-11-21T22:53:03.265Z,35.63
2018-11-21T22:55:42.613Z,34.63
2018-11-21T22:58:22.740Z,35.17
2018-11-21T23:01:03.206Z,35.87
2018-11-21T23:03:43.093Z,35.10
2018-11-21T23:06:23.206Z,35.87
2018-11-21T23:09:03.796Z,36.03
2018-11-21T23:11:44.016Z,34.00
2018-11-21T23:14:23.768Z,34.73
2018-11-21T23:17:04.215Z,34.27
2018-11-21T23:19:43.863Z,34.93
2018-11-21T23:22:23.539Z,34.90
2018-11-21T23:25:03.841Z,35.87
2018-11-21T23:27:44.150Z,35.30
2018-11-21T23:30:23.312Z,35.30
2018-11-21T23:33:10.555Z,35.07
2018-11-21T23:35:57.452Z,35.60
2018-11-21T23:38:44.158Z,34.40
2018-11-21T23:41:30.865Z,35.93
2018-11-21T23:44:18.048Z,33.50
2018-11-21T23:47:04.694Z,32.73
2018-11-21T23:49:51.278Z,34.30
2018-11-21T23:52:38.300Z,35.90
2018-11-21T23:55:24.900Z,34.37
2018-11-21T23:58:11.889Z,34.47
